sensor_id;sensor_type;location;lat;lon;timestamp;temperature;humidity
25871;DHT22;13689;48.590;7.752;2022-07-21T00:00:57;24.00;73.40
25871;DHT22;13689;48.590;7.752;2022-07-21T00:03:22;23.90;73.30
25871;DHT22;13689;48.590;7.752;2022-07-21T00:05:48;23.90;73.90
25871;DHT22;13689;48.590;7.752;2022-07-21T00:08:14;23.90;74.20
25871;DHT22;13689;48.590;7.752;2022-07-21T00:10:39;23.90;74.40
25871;DHT22;13689;48.590;7.752;2022-07-21T00:13:05;23.90;74.50
25871;DHT22;13689;48.590;7.752;2022-07-21T00:15:32;23.90;74.20
25871;DHT22;13689;48.590;7.752;2022-07-21T00:17:58;23.70;75.80
25871;DHT22;13689;48.590;7.752;2022-07-21T00:20:24;23.70;75.60
25871;DHT22;13689;48.590;7.752;2022-07-21T00:22:50;23.70;76.10
25871;DHT22;13689;48.590;7.752;2022-07-21T00:25:16;23.60;75.60
25871;DHT22;13689;48.590;7.752;2022-07-21T00:27:42;23.60;76.40
25871;DHT22;13689;48.590;7.752;2022-07-21T00:30:08;23.60;76.60
25871;DHT22;13689;48.590;7.752;2022-07-21T00:32:35;23.60;76.60
25871;DHT22;13689;48.590;7.752;2022-07-21T00:35:01;23.70;76.40
25871;DHT22;13689;48.590;7.752;2022-07-21T00:37:27;23.50;76.40
25871;DHT22;13689;48.590;7.752;2022-07-21T00:39:54;23.50;76.50
25871;DHT22;13689;48.590;7.752;2022-07-21T00:42:30;23.40;76.80
25871;DHT22;13689;48.590;7.752;2022-07-21T00:44:57;23.40;76.60
25871;DHT22;13689;48.590;7.752;2022-07-21T00:47:24;23.50;77.50
25871;DHT22;13689;48.590;7.752;2022-07-21T00:49:51;23.50;77.00
25871;DHT22;13689;48.590;7.752;2022-07-21T00:52:17;23.50;77.10
25871;DHT22;13689;48.590;7.752;2022-07-21T00:54:43;23.60;77.60
25871;DHT22;13689;48.590;7.752;2022-07-21T00:57:09;23.70;77.40
25871;DHT22;13689;48.590;7.752;2022-07-21T00:59:36;23.80;77.20
25871;DHT22;13689;48.590;7.752;2022-07-21T01:02:02;23.80;76.80
25871;DHT22;13689;48.590;7.752;2022-07-21T01:04:27;23.80;76.90
25871;DHT22;13689;48.590;7.752;2022-07-21T01:06:54;23.80;77.10
25871;DHT22;13689;48.590;7.752;2022-07-21T01:09:20;23.90;76.80
25871;DHT22;13689;48.590;7.752;2022-07-21T01:11:47;24.00;76.90
25871;DHT22;13689;48.590;7.752;2022-07-21T01:14:13;24.00;75.80
25871;DHT22;13689;48.590;7.752;2022-07-21T01:16:40;23.90;76.00
25871;DHT22;13689;48.590;7.752;2022-07-21T01:19:06;23.90;76.60
25871;DHT22;13689;48.590;7.752;2022-07-21T01:21:39;24.10;76.70
25871;DHT22;13689;48.590;7.752;2022-07-21T01:24:06;24.00;75.80
25871;DHT22;13689;48.590;7.752;2022-07-21T01:26:40;24.00;77.10
25871;DHT22;13689;48.590;7.752;2022-07-21T01:29:07;24.00;77.30
25871;DHT22;13689;48.590;7.752;2022-07-21T01:31:35;24.00;77.00
25871;DHT22;13689;48.590;7.752;2022-07-21T01:34:01;24.10;77.00
25871;DHT22;13689;48.590;7.752;2022-07-21T01:36:26;24.10;76.70
25871;DHT22;13689;48.590;7.752;2022-07-21T01:38:52;23.80;76.50
25871;DHT22;13689;48.590;7.752;2022-07-21T01:41:36;23.70;77.30
25871;DHT22;13689;48.590;7.752;2022-07-21T01:44:05;23.80;78.20
25871;DHT22;13689;48.590;7.752;2022-07-21T01:46:33;23.90;77.70
25871;DHT22;13689;48.590;7.752;2022-07-21T01:48:59;24.00;77.30
25871;DHT22;13689;48.590;7.752;2022-07-21T01:51:25;23.80;76.60
25871;DHT22;13689;48.590;7.752;2022-07-21T01:53:52;23.90;77.50
25871;DHT22;13689;48.590;7.752;2022-07-21T01:56:25;23.80;77.20
25871;DHT22;13689;48.590;7.752;2022-07-21T01:58:52;23.90;77.40
25871;DHT22;13689;48.590;7.752;2022-07-21T02:01:19;23.90;77.50
25871;DHT22;13689;48.590;7.752;2022-07-21T02:03:46;23.90;77.80
25871;DHT22;13689;48.590;7.752;2022-07-21T02:06:12;24.00;76.90
25871;DHT22;13689;48.590;7.752;2022-07-21T02:08:38;24.00;76.70
25871;DHT22;13689;48.590;7.752;2022-07-21T02:11:06;23.90;76.90
25871;DHT22;13689;48.590;7.752;2022-07-21T02:13:32;24.00;76.70
25871;DHT22;13689;48.590;7.752;2022-07-21T02:15:58;23.90;76.70
25871;DHT22;13689;48.590;7.752;2022-07-21T02:18:24;23.90;76.50
25871;DHT22;13689;48.590;7.752;2022-07-21T02:20:49;24.00;77.00
25871;DHT22;13689;48.590;7.752;2022-07-21T02:23:19;24.00;76.30
25871;DHT22;13689;48.590;7.752;2022-07-21T02:25:45;24.00;76.30
25871;DHT22;13689;48.590;7.752;2022-07-21T02:28:11;24.00;76.40
25871;DHT22;13689;48.590;7.752;2022-07-21T02:30:37;24.00;76.00
25871;DHT22;13689;48.590;7.752;2022-07-21T02:33:03;23.80;76.50
25871;DHT22;13689;48.590;7.752;2022-07-21T02:35:29;23.80;76.60
25871;DHT22;13689;48.590;7.752;2022-07-21T02:37:55;23.70;77.10
25871;DHT22;13689;48.590;7.752;2022-07-21T02:40:20;23.60;77.10
25871;DHT22;13689;48.590;7.752;2022-07-21T02:42:46;23.50;77.10
25871;DHT22;13689;48.590;7.752;2022-07-21T02:45:12;23.30;77.60
25871;DHT22;13689;48.590;7.752;2022-07-21T02:47:48;23.30;78.40
25871;DHT22;13689;48.590;7.752;2022-07-21T02:50:15;23.30;78.30
25871;DHT22;13689;48.590;7.752;2022-07-21T02:52:41;23.30;78.10
25871;DHT22;13689;48.590;7.752;2022-07-21T02:55:07;23.20;78.70
25871;DHT22;13689;48.590;7.752;2022-07-21T02:57:33;23.10;78.60
25871;DHT22;13689;48.590;7.752;2022-07-21T02:59:59;23.00;78.90
25871;DHT22;13689;48.590;7.752;2022-07-21T03:02:24;22.90;79.30
25871;DHT22;13689;48.590;7.752;2022-07-21T03:04:50;22.80;79.50
25871;DHT22;13689;48.590;7.752;2022-07-21T03:07:16;22.80;79.70
25871;DHT22;13689;48.590;7.752;2022-07-21T03:09:42;22.70;80.20
25871;DHT22;13689;48.590;7.752;2022-07-21T03:12:07;22.90;80.60
25871;DHT22;13689;48.590;7.752;2022-07-21T03:14:33;23.20;80.30
25871;DHT22;13689;48.590;7.752;2022-07-21T03:16:59;23.10;78.70
25871;DHT22;13689;48.590;7.752;2022-07-21T03:19:26;23.10;79.10
25871;DHT22;13689;48.590;7.752;2022-07-21T03:21:51;22.90;79.00
25871;DHT22;13689;48.590;7.752;2022-07-21T03:24:17;22.80;79.80
25871;DHT22;13689;48.590;7.752;2022-07-21T03:26:43;23.00;80.40
25871;DHT22;13689;48.590;7.752;2022-07-21T03:29:08;22.90;79.70
25871;DHT22;13689;48.590;7.752;2022-07-21T03:31:35;22.80;80.00
25871;DHT22;13689;48.590;7.752;2022-07-21T03:34:02;22.90;79.80
25871;DHT22;13689;48.590;7.752;2022-07-21T03:36:28;22.80;79.70
25871;DHT22;13689;48.590;7.752;2022-07-21T03:38:54;22.70;80.00
25871;DHT22;13689;48.590;7.752;2022-07-21T03:41:20;22.80;80.30
25871;DHT22;13689;48.590;7.752;2022-07-21T03:43:45;22.90;80.70
25871;DHT22;13689;48.590;7.752;2022-07-21T03:46:11;23.10;80.50
25871;DHT22;13689;48.590;7.752;2022-07-21T03:48:36;23.30;79.70
25871;DHT22;13689;48.590;7.752;2022-07-21T03:51:02;23.10;78.90
25871;DHT22;13689;48.590;7.752;2022-07-21T03:53:28;22.90;78.60
25871;DHT22;13689;48.590;7.752;2022-07-21T03:55:54;22.70;79.90
25871;DHT22;13689;48.590;7.752;2022-07-21T03:58:19;22.70;80.00
25871;DHT22;13689;48.590;7.752;2022-07-21T04:00:45;22.60;80.20
25871;DHT22;13689;48.590;7.752;2022-07-21T04:03:12;22.70;80.80
25871;DHT22;13689;48.590;7.752;2022-07-21T04:05:39;23.10;80.70
25871;DHT22;13689;48.590;7.752;2022-07-21T04:08:06;23.30;79.40
25871;DHT22;13689;48.590;7.752;2022-07-21T04:10:34;23.10;78.50
25871;DHT22;13689;48.590;7.752;2022-07-21T04:13:00;22.90;79.20
25871;DHT22;13689;48.590;7.752;2022-07-21T04:15:26;22.70;79.50
25871;DHT22;13689;48.590;7.752;2022-07-21T04:17:52;22.60;80.10
25871;DHT22;13689;48.590;7.752;2022-07-21T04:20:18;22.50;80.50
25871;DHT22;13689;48.590;7.752;2022-07-21T04:22:46;22.40;81.00
25871;DHT22;13689;48.590;7.752;2022-07-21T04:25:12;22.40;81.40
25871;DHT22;13689;48.590;7.752;2022-07-21T04:27:38;22.50;82.20
25871;DHT22;13689;48.590;7.752;2022-07-21T04:30:07;22.70;81.20
25871;DHT22;13689;48.590;7.752;2022-07-21T04:32:33;22.60;81.00
25871;DHT22;13689;48.590;7.752;2022-07-21T04:34:59;22.70;80.80
25871;DHT22;13689;48.590;7.752;2022-07-21T04:37:25;22.60;80.90
25871;DHT22;13689;48.590;7.752;2022-07-21T04:39:51;22.70;81.70
25871;DHT22;13689;48.590;7.752;2022-07-21T04:42:16;22.70;81.50
25871;DHT22;13689;48.590;7.752;2022-07-21T04:44:42;22.90;81.10
25871;DHT22;13689;48.590;7.752;2022-07-21T04:47:07;22.80;80.30
25871;DHT22;13689;48.590;7.752;2022-07-21T04:49:33;22.70;80.80
25871;DHT22;13689;48.590;7.752;2022-07-21T04:51:59;22.60;81.40
25871;DHT22;13689;48.590;7.752;2022-07-21T04:54:24;22.50;81.80
25871;DHT22;13689;48.590;7.752;2022-07-21T04:56:50;22.70;82.60
25871;DHT22;13689;48.590;7.752;2022-07-21T04:59:16;22.80;80.80
25871;DHT22;13689;48.590;7.752;2022-07-21T05:01:41;22.70;80.80
25871;DHT22;13689;48.590;7.752;2022-07-21T05:04:07;22.70;81.10
25871;DHT22;13689;48.590;7.752;2022-07-21T05:06:33;22.60;81.60
25871;DHT22;13689;48.590;7.752;2022-07-21T05:08:59;22.70;82.00
25871;DHT22;13689;48.590;7.752;2022-07-21T05:11:24;22.70;81.80
25871;DHT22;13689;48.590;7.752;2022-07-21T05:13:50;22.70;81.60
25871;DHT22;13689;48.590;7.752;2022-07-21T05:16:16;22.70;81.10
25871;DHT22;13689;48.590;7.752;2022-07-21T05:18:41;22.60;81.20
25871;DHT22;13689;48.590;7.752;2022-07-21T05:21:07;22.60;81.30
25871;DHT22;13689;48.590;7.752;2022-07-21T05:23:44;22.60;81.70
25871;DHT22;13689;48.590;7.752;2022-07-21T05:26:11;22.60;81.60
25871;DHT22;13689;48.590;7.752;2022-07-21T05:28:37;22.60;81.80
25871;DHT22;13689;48.590;7.752;2022-07-21T05:31:03;22.60;82.60
25871;DHT22;13689;48.590;7.752;2022-07-21T05:33:29;22.70;81.70
25871;DHT22;13689;48.590;7.752;2022-07-21T05:35:55;22.80;81.20
25871;DHT22;13689;48.590;7.752;2022-07-21T05:38:20;22.80;81.30
25871;DHT22;13689;48.590;7.752;2022-07-21T05:40:47;22.90;81.10
25871;DHT22;13689;48.590;7.752;2022-07-21T05:43:12;23.00;80.80
25871;DHT22;13689;48.590;7.752;2022-07-21T05:45:38;23.00;80.60
25871;DHT22;13689;48.590;7.752;2022-07-21T05:48:04;23.00;80.90
25871;DHT22;13689;48.590;7.752;2022-07-21T05:50:29;23.00;80.30
25871;DHT22;13689;48.590;7.752;2022-07-21T05:52:55;22.90;80.30
25871;DHT22;13689;48.590;7.752;2022-07-21T05:55:23;23.00;80.30
25871;DHT22;13689;48.590;7.752;2022-07-21T05:57:49;23.20;79.90
25871;DHT22;13689;48.590;7.752;2022-07-21T06:00:16;23.70;79.20
25871;DHT22;13689;48.590;7.752;2022-07-21T06:02:43;24.10;77.90
25871;DHT22;13689;48.590;7.752;2022-07-21T06:05:08;24.20;76.50
25871;DHT22;13689;48.590;7.752;2022-07-21T06:07:36;24.00;76.50
25871;DHT22;13689;48.590;7.752;2022-07-21T06:10:02;23.70;76.90
25871;DHT22;13689;48.590;7.752;2022-07-21T06:12:28;23.60;77.40
25871;DHT22;13689;48.590;7.752;2022-07-21T06:14:54;23.60;77.50
25871;DHT22;13689;48.590;7.752;2022-07-21T06:17:21;23.90;77.40
25871;DHT22;13689;48.590;7.752;2022-07-21T06:19:47;24.20;76.60
25871;DHT22;13689;48.590;7.752;2022-07-21T06:22:12;24.40;76.00
25871;DHT22;13689;48.590;7.752;2022-07-21T06:24:38;24.70;75.20
25871;DHT22;13689;48.590;7.752;2022-07-21T06:27:04;24.90;74.10
25871;DHT22;13689;48.590;7.752;2022-07-21T06:29:29;25.00;73.30
25871;DHT22;13689;48.590;7.752;2022-07-21T06:31:55;25.20;72.30
25871;DHT22;13689;48.590;7.752;2022-07-21T06:34:21;25.30;71.90
25871;DHT22;13689;48.590;7.752;2022-07-21T06:36:46;25.50;71.10
25871;DHT22;13689;48.590;7.752;2022-07-21T06:39:12;25.70;70.60
25871;DHT22;13689;48.590;7.752;2022-07-21T06:41:39;25.80;70.20
25871;DHT22;13689;48.590;7.752;2022-07-21T06:44:04;25.90;69.60
25871;DHT22;13689;48.590;7.752;2022-07-21T06:46:34;26.00;69.10
25871;DHT22;13689;48.590;7.752;2022-07-21T06:49:00;26.10;69.10
25871;DHT22;13689;48.590;7.752;2022-07-21T06:51:26;26.30;68.60
25871;DHT22;13689;48.590;7.752;2022-07-21T06:53:52;26.40;68.20
25871;DHT22;13689;48.590;7.752;2022-07-21T06:56:18;26.60;67.60
25871;DHT22;13689;48.590;7.752;2022-07-21T06:58:44;26.70;66.60
25871;DHT22;13689;48.590;7.752;2022-07-21T07:01:11;26.70;65.60
25871;DHT22;13689;48.590;7.752;2022-07-21T07:03:39;26.40;65.70
25871;DHT22;13689;48.590;7.752;2022-07-21T07:06:05;26.10;66.40
25871;DHT22;13689;48.590;7.752;2022-07-21T07:08:32;26.20;66.70
25871;DHT22;13689;48.590;7.752;2022-07-21T07:10:58;26.50;66.20
25871;DHT22;13689;48.590;7.752;2022-07-21T07:13:26;26.70;65.70
25871;DHT22;13689;48.590;7.752;2022-07-21T07:15:52;27.10;64.90
25871;DHT22;13689;48.590;7.752;2022-07-21T07:18:21;27.40;64.40
25871;DHT22;13689;48.590;7.752;2022-07-21T07:20:49;27.70;63.30
25871;DHT22;13689;48.590;7.752;2022-07-21T07:23:16;28.00;61.90
25871;DHT22;13689;48.590;7.752;2022-07-21T07:25:41;28.10;61.40
25871;DHT22;13689;48.590;7.752;2022-07-21T07:28:07;28.20;60.70
25871;DHT22;13689;48.590;7.752;2022-07-21T07:30:34;28.40;59.80
25871;DHT22;13689;48.590;7.752;2022-07-21T07:33:00;28.50;59.50
25871;DHT22;13689;48.590;7.752;2022-07-21T07:35:26;28.60;59.20
25871;DHT22;13689;48.590;7.752;2022-07-21T07:37:51;28.70;58.80
25871;DHT22;13689;48.590;7.752;2022-07-21T07:40:20;28.80;58.70
25871;DHT22;13689;48.590;7.752;2022-07-21T07:42:46;28.80;58.30
25871;DHT22;13689;48.590;7.752;2022-07-21T07:45:12;28.90;58.30
25871;DHT22;13689;48.590;7.752;2022-07-21T07:47:38;28.90;58.30
25871;DHT22;13689;48.590;7.752;2022-07-21T07:50:05;29.00;58.00
25871;DHT22;13689;48.590;7.752;2022-07-21T07:52:31;29.20;57.80
25871;DHT22;13689;48.590;7.752;2022-07-21T07:54:57;29.30;57.10
25871;DHT22;13689;48.590;7.752;2022-07-21T07:57:23;29.50;57.50
25871;DHT22;13689;48.590;7.752;2022-07-21T07:59:49;29.60;56.40
25871;DHT22;13689;48.590;7.752;2022-07-21T08:02:14;29.80;55.40
25871;DHT22;13689;48.590;7.752;2022-07-21T08:04:40;29.90;55.10
25871;DHT22;13689;48.590;7.752;2022-07-21T08:07:08;30.20;54.60
25871;DHT22;13689;48.590;7.752;2022-07-21T08:09:34;30.40;54.30
25871;DHT22;13689;48.590;7.752;2022-07-21T08:12:03;30.10;53.90
25871;DHT22;13689;48.590;7.752;2022-07-21T08:14:28;30.40;53.80
25871;DHT22;13689;48.590;7.752;2022-07-21T08:16:54;30.70;53.00
25871;DHT22;13689;48.590;7.752;2022-07-21T08:19:19;30.80;51.70
25871;DHT22;13689;48.590;7.752;2022-07-21T08:21:45;30.70;51.30
25871;DHT22;13689;48.590;7.752;2022-07-21T08:24:11;30.00;51.90
25871;DHT22;13689;48.590;7.752;2022-07-21T08:26:36;29.60;52.60
25871;DHT22;13689;48.590;7.752;2022-07-21T08:29:02;29.20;52.90
25871;DHT22;13689;48.590;7.752;2022-07-21T08:31:28;29.10;52.80
25871;DHT22;13689;48.590;7.752;2022-07-21T08:34:03;29.20;53.00
25871;DHT22;13689;48.590;7.752;2022-07-21T08:36:29;30.10;52.10
25871;DHT22;13689;48.590;7.752;2022-07-21T08:39:05;31.00;50.00
25871;DHT22;13689;48.590;7.752;2022-07-21T08:41:32;31.50;49.20
25871;DHT22;13689;48.590;7.752;2022-07-21T08:43:58;32.10;47.10
25871;DHT22;13689;48.590;7.752;2022-07-21T08:46:24;32.20;46.10
25871;DHT22;13689;48.590;7.752;2022-07-21T08:48:50;31.40;47.00
25871;DHT22;13689;48.590;7.752;2022-07-21T08:51:19;31.60;47.30
25871;DHT22;13689;48.590;7.752;2022-07-21T08:53:45;32.20;46.80
25871;DHT22;13689;48.590;7.752;2022-07-21T08:56:38;32.60;45.80
25871;DHT22;13689;48.590;7.752;2022-07-21T08:59:03;33.10;44.40
25871;DHT22;13689;48.590;7.752;2022-07-21T09:01:31;33.20;43.50
25871;DHT22;13689;48.590;7.752;2022-07-21T09:06:59;32.50;43.90
25871;DHT22;13689;48.590;7.752;2022-07-21T09:09:40;33.00;43.60
25871;DHT22;13689;48.590;7.752;2022-07-21T09:12:18;32.40;43.30
25871;DHT22;13689;48.590;7.752;2022-07-21T09:14:45;31.80;44.10
25871;DHT22;13689;48.590;7.752;2022-07-21T09:17:11;31.20;45.20
25871;DHT22;13689;48.590;7.752;2022-07-21T09:19:38;30.80;45.60
25871;DHT22;13689;48.590;7.752;2022-07-21T09:22:14;30.10;46.30
25871;DHT22;13689;48.590;7.752;2022-07-21T09:24:40;29.70;47.00
25871;DHT22;13689;48.590;7.752;2022-07-21T09:29:35;29.10;47.10
25871;DHT22;13689;48.590;7.752;2022-07-21T09:34:49;30.70;44.90
25871;DHT22;13689;48.590;7.752;2022-07-21T09:37:17;31.40;43.30
25871;DHT22;13689;48.590;7.752;2022-07-21T09:40:09;30.80;43.00
25871;DHT22;13689;48.590;7.752;2022-07-21T09:42:42;30.10;43.60
25871;DHT22;13689;48.590;7.752;2022-07-21T09:45:10;30.20;44.00
25871;DHT22;13689;48.590;7.752;2022-07-21T09:47:37;30.50;43.20
25871;DHT22;13689;48.590;7.752;2022-07-21T09:50:07;30.30;43.30
25871;DHT22;13689;48.590;7.752;2022-07-21T09:52:52;30.40;43.30
25871;DHT22;13689;48.590;7.752;2022-07-21T09:55:18;30.20;43.50
25871;DHT22;13689;48.590;7.752;2022-07-21T09:57:55;30.90;43.00
25871;DHT22;13689;48.590;7.752;2022-07-21T10:00:23;31.50;42.10
25871;DHT22;13689;48.590;7.752;2022-07-21T10:02:49;31.30;40.90
25871;DHT22;13689;48.590;7.752;2022-07-21T10:05:18;31.20;41.30
25871;DHT22;13689;48.590;7.752;2022-07-21T10:07:46;31.40;41.10
25871;DHT22;13689;48.590;7.752;2022-07-21T10:10:13;31.50;41.00
25871;DHT22;13689;48.590;7.752;2022-07-21T10:12:39;32.20;39.80
25871;DHT22;13689;48.590;7.752;2022-07-21T10:15:05;32.50;38.80
25871;DHT22;13689;48.590;7.752;2022-07-21T10:17:31;32.90;38.40
25871;DHT22;13689;48.590;7.752;2022-07-21T10:20:16;33.00;37.40
25871;DHT22;13689;48.590;7.752;2022-07-21T10:25:24;31.50;38.80
25871;DHT22;13689;48.590;7.752;2022-07-21T10:30:43;30.80;40.00
25871;DHT22;13689;48.590;7.752;2022-07-21T10:33:10;31.30;40.10
25871;DHT22;13689;48.590;7.752;2022-07-21T10:35:43;31.70;39.50
25871;DHT22;13689;48.590;7.752;2022-07-21T10:38:26;31.60;39.40
25871;DHT22;13689;48.590;7.752;2022-07-21T10:40:53;31.70;39.20
25871;DHT22;13689;48.590;7.752;2022-07-21T10:45:52;31.20;39.80
25871;DHT22;13689;48.590;7.752;2022-07-21T10:51:15;31.20;39.90
25871;DHT22;13689;48.590;7.752;2022-07-21T10:53:42;31.30;40.00
25871;DHT22;13689;48.590;7.752;2022-07-21T10:56:26;31.50;39.50
25871;DHT22;13689;48.590;7.752;2022-07-21T10:58:52;31.20;39.50
25871;DHT22;13689;48.590;7.752;2022-07-21T11:03:44;30.40;40.40
25871;DHT22;13689;48.590;7.752;2022-07-21T11:06:24;30.10;40.90
25871;DHT22;13689;48.590;7.752;2022-07-21T11:11:28;29.70;41.70
25871;DHT22;13689;48.590;7.752;2022-07-21T11:19:29;29.80;42.00
25871;DHT22;13689;48.590;7.752;2022-07-21T11:21:57;29.70;42.00
25871;DHT22;13689;48.590;7.752;2022-07-21T11:24:24;29.60;42.10
25871;DHT22;13689;48.590;7.752;2022-07-21T11:27:05;29.50;42.40
25871;DHT22;13689;48.590;7.752;2022-07-21T11:29:33;29.40;42.60
25871;DHT22;13689;48.590;7.752;2022-07-21T11:31:59;29.50;42.70
25871;DHT22;13689;48.590;7.752;2022-07-21T11:34:48;29.60;42.80
25871;DHT22;13689;48.590;7.752;2022-07-21T11:37:34;29.60;42.90
25871;DHT22;13689;48.590;7.752;2022-07-21T11:40:01;29.50;42.90
25871;DHT22;13689;48.590;7.752;2022-07-21T11:42:28;29.40;43.00
25871;DHT22;13689;48.590;7.752;2022-07-21T11:44:56;29.30;43.20
25871;DHT22;13689;48.590;7.752;2022-07-21T11:47:23;29.20;43.30
25871;DHT22;13689;48.590;7.752;2022-07-21T11:49:54;29.30;43.30
25871;DHT22;13689;48.590;7.752;2022-07-21T11:52:25;29.40;43.20
25871;DHT22;13689;48.590;7.752;2022-07-21T11:54:53;29.50;43.30
25871;DHT22;13689;48.590;7.752;2022-07-21T11:57:19;29.50;43.20
25871;DHT22;13689;48.590;7.752;2022-07-21T11:59:46;29.40;43.20
25871;DHT22;13689;48.590;7.752;2022-07-21T12:04:59;29.40;43.40
25871;DHT22;13689;48.590;7.752;2022-07-21T12:10:13;29.40;43.30
25871;DHT22;13689;48.590;7.752;2022-07-21T12:12:47;29.40;43.50
25871;DHT22;13689;48.590;7.752;2022-07-21T12:15:20;29.40;43.50
25871;DHT22;13689;48.590;7.752;2022-07-21T12:17:51;29.40;43.70
25871;DHT22;13689;48.590;7.752;2022-07-21T12:20:33;29.30;43.50
25871;DHT22;13689;48.590;7.752;2022-07-21T12:23:18;29.20;43.80
25871;DHT22;13689;48.590;7.752;2022-07-21T12:25:44;29.20;43.80
25871;DHT22;13689;48.590;7.752;2022-07-21T12:28:10;29.30;43.70
25871;DHT22;13689;48.590;7.752;2022-07-21T12:30:39;29.20;43.60
25871;DHT22;13689;48.590;7.752;2022-07-21T12:33:13;29.30;43.70
25871;DHT22;13689;48.590;7.752;2022-07-21T12:35:56;29.40;43.80
25871;DHT22;13689;48.590;7.752;2022-07-21T12:38:22;29.50;43.60
25871;DHT22;13689;48.590;7.752;2022-07-21T12:41:00;29.50;43.20
25871;DHT22;13689;48.590;7.752;2022-07-21T12:43:27;29.60;43.20
25871;DHT22;13689;48.590;7.752;2022-07-21T12:48:35;29.80;42.70
25871;DHT22;13689;48.590;7.752;2022-07-21T12:53:53;29.70;42.40
25871;DHT22;13689;48.590;7.752;2022-07-21T12:56:29;29.60;42.60
25871;DHT22;13689;48.590;7.752;2022-07-21T12:58:57;29.40;42.80
25871;DHT22;13689;48.590;7.752;2022-07-21T13:01:30;29.30;43.20
25871;DHT22;13689;48.590;7.752;2022-07-21T13:04:34;29.20;43.40
25871;DHT22;13689;48.590;7.752;2022-07-21T13:07:00;29.30;43.40
25871;DHT22;13689;48.590;7.752;2022-07-21T13:09:52;29.30;43.20
25871;DHT22;13689;48.590;7.752;2022-07-21T13:12:18;29.30;43.10
25871;DHT22;13689;48.590;7.752;2022-07-21T13:14:44;29.40;43.10
25871;DHT22;13689;48.590;7.752;2022-07-21T13:17:09;29.30;43.10
25871;DHT22;13689;48.590;7.752;2022-07-21T13:19:35;29.30;43.10
25871;DHT22;13689;48.590;7.752;2022-07-21T13:22:02;29.40;43.20
25871;DHT22;13689;48.590;7.752;2022-07-21T13:24:28;29.40;43.20
25871;DHT22;13689;48.590;7.752;2022-07-21T13:26:54;29.40;43.20
25871;DHT22;13689;48.590;7.752;2022-07-21T13:29:19;29.40;43.10
25871;DHT22;13689;48.590;7.752;2022-07-21T13:31:45;29.50;42.90
25871;DHT22;13689;48.590;7.752;2022-07-21T13:34:11;29.50;42.90
25871;DHT22;13689;48.590;7.752;2022-07-21T13:36:37;29.40;42.90
25871;DHT22;13689;48.590;7.752;2022-07-21T13:39:06;29.40;43.00
25871;DHT22;13689;48.590;7.752;2022-07-21T13:41:32;29.40;42.90
25871;DHT22;13689;48.590;7.752;2022-07-21T13:43:59;29.30;42.90
25871;DHT22;13689;48.590;7.752;2022-07-21T13:46:24;29.40;42.90
25871;DHT22;13689;48.590;7.752;2022-07-21T13:48:50;29.40;42.70
25871;DHT22;13689;48.590;7.752;2022-07-21T13:51:17;29.40;42.70
25871;DHT22;13689;48.590;7.752;2022-07-21T13:53:45;29.50;42.70
25871;DHT22;13689;48.590;7.752;2022-07-21T13:56:11;29.50;42.60
25871;DHT22;13689;48.590;7.752;2022-07-21T13:58:37;29.60;42.50
25871;DHT22;13689;48.590;7.752;2022-07-21T14:01:05;29.40;42.40
25871;DHT22;13689;48.590;7.752;2022-07-21T14:03:33;29.20;42.40
25871;DHT22;13689;48.590;7.752;2022-07-21T14:05:58;29.20;42.60
25871;DHT22;13689;48.590;7.752;2022-07-21T14:08:24;29.20;42.70
25871;DHT22;13689;48.590;7.752;2022-07-21T14:10:49;29.20;42.60
25871;DHT22;13689;48.590;7.752;2022-07-21T14:13:15;29.30;42.70
25871;DHT22;13689;48.590;7.752;2022-07-21T14:15:41;29.30;43.20
25871;DHT22;13689;48.590;7.752;2022-07-21T14:18:07;29.40;42.60
25871;DHT22;13689;48.590;7.752;2022-07-21T14:20:32;29.50;42.60
25871;DHT22;13689;48.590;7.752;2022-07-21T14:22:58;29.50;42.50
25871;DHT22;13689;48.590;7.752;2022-07-21T14:25:24;29.50;42.40
25871;DHT22;13689;48.590;7.752;2022-07-21T14:27:52;29.50;42.30
25871;DHT22;13689;48.590;7.752;2022-07-21T14:30:20;29.70;42.20
25871;DHT22;13689;48.590;7.752;2022-07-21T14:32:46;29.80;42.10
25871;DHT22;13689;48.590;7.752;2022-07-21T14:35:12;29.90;42.10
25871;DHT22;13689;48.590;7.752;2022-07-21T14:37:40;29.60;42.00
25871;DHT22;13689;48.590;7.752;2022-07-21T14:40:06;29.40;42.30
25871;DHT22;13689;48.590;7.752;2022-07-21T14:42:35;29.10;42.60
25871;DHT22;13689;48.590;7.752;2022-07-21T14:45:01;29.00;42.90
25871;DHT22;13689;48.590;7.752;2022-07-21T14:47:26;28.90;43.10
25871;DHT22;13689;48.590;7.752;2022-07-21T14:49:52;28.90;43.00
25871;DHT22;13689;48.590;7.752;2022-07-21T14:52:18;29.00;43.00
25871;DHT22;13689;48.590;7.752;2022-07-21T14:54:44;29.00;43.10
25871;DHT22;13689;48.590;7.752;2022-07-21T14:57:09;29.00;43.10
25871;DHT22;13689;48.590;7.752;2022-07-21T14:59:35;29.10;43.00
25871;DHT22;13689;48.590;7.752;2022-07-21T15:02:00;29.10;43.10
25871;DHT22;13689;48.590;7.752;2022-07-21T15:04:28;29.20;43.00
25871;DHT22;13689;48.590;7.752;2022-07-21T15:06:53;29.30;42.70
25871;DHT22;13689;48.590;7.752;2022-07-21T15:09:19;29.40;42.60
25871;DHT22;13689;48.590;7.752;2022-07-21T15:11:45;29.40;42.40
25871;DHT22;13689;48.590;7.752;2022-07-21T15:14:10;29.50;42.50
25871;DHT22;13689;48.590;7.752;2022-07-21T15:16:36;29.40;42.40
25871;DHT22;13689;48.590;7.752;2022-07-21T15:19:02;29.40;42.50
25871;DHT22;13689;48.590;7.752;2022-07-21T15:21:27;29.30;42.50
25871;DHT22;13689;48.590;7.752;2022-07-21T15:23:53;29.30;42.60
25871;DHT22;13689;48.590;7.752;2022-07-21T15:26:19;29.30;42.60
25871;DHT22;13689;48.590;7.752;2022-07-21T15:28:46;29.30;42.70
25871;DHT22;13689;48.590;7.752;2022-07-21T15:31:11;29.20;42.70
25871;DHT22;13689;48.590;7.752;2022-07-21T15:33:37;29.30;42.90
25871;DHT22;13689;48.590;7.752;2022-07-21T15:36:03;29.40;42.80
25871;DHT22;13689;48.590;7.752;2022-07-21T15:38:28;29.50;42.80
25871;DHT22;13689;48.590;7.752;2022-07-21T15:40:54;29.50;42.80
25871;DHT22;13689;48.590;7.752;2022-07-21T15:43:20;29.40;43.00
25871;DHT22;13689;48.590;7.752;2022-07-21T15:45:46;29.30;43.80
25871;DHT22;13689;48.590;7.752;2022-07-21T15:48:12;29.20;43.30
25871;DHT22;13689;48.590;7.752;2022-07-21T15:50:38;29.20;43.30
25871;DHT22;13689;48.590;7.752;2022-07-21T15:53:05;29.10;43.30
25871;DHT22;13689;48.590;7.752;2022-07-21T15:55:31;29.10;43.40
25871;DHT22;13689;48.590;7.752;2022-07-21T15:57:57;29.10;43.40
25871;DHT22;13689;48.590;7.752;2022-07-21T16:00:23;29.10;43.50
25871;DHT22;13689;48.590;7.752;2022-07-21T16:02:49;29.00;43.50
25871;DHT22;13689;48.590;7.752;2022-07-21T16:05:19;29.00;43.70
25871;DHT22;13689;48.590;7.752;2022-07-21T16:07:46;29.00;43.70
25871;DHT22;13689;48.590;7.752;2022-07-21T16:10:14;29.00;43.60
25871;DHT22;13689;48.590;7.752;2022-07-21T16:12:40;29.00;43.70